首页
METAR-TAF:

METAR-TAF

机场 :

Charles B. Wheeler Downtown Airport

堪薩斯城, 密蘇里州, 美国

纬度: 39-07-15N, 经度: 094-35-49W, 海拔: 231米

当前天气观测

该预报发布于57分钟前的13:54 UTC
风速3节,风向
温度 24°C
湿度 83%
气压 1017 hPa
能見度: 16.1公里
天空无云

METAR: KMKC 121354Z 17003KT 10SM CLR 24/21 A3002 RMK AO2 SLP158 T02440211

时间: 09:51 (14:51 UTC)

预报

该预报发布于3小时和31分钟前的11:20 UTC
预报有效从12日的 12点(UTC)到 13日的 12点(UTC)
风速5节,风向南转南东
能見度: 10公里
散云层高于1000英尺
多云层高于20000英尺
短暂存在
从 12日的 12点(UTC)到 12日的 14点(UTC)
能見度: 4.8公里
多云层高于600英尺
轻雾
从 12日的 1700点(UTC)
风速7节,风向东南
能見度: 10公里
多云层高于4000英尺

TAF: KMKC 121120Z 1212/1312 15005KT P6SM SCT010 BKN200 TEMPO 1212/1214 3SM BR BKN006 FM121700 13007KT P6SM BKN040

超过4000个机场的气象观测和天气预报(METAR&TAF报告)。

可查询的气象台以黄色和红色小点在地图上表示。

将鼠标移到小点上方,可查看气象台名称。

然后点击查看天气观测和预报。

如需切换地图:点击带黑十字的绿色按钮放大地图;点击带横线的绿色按钮缩小地图;或者点击绿色箭头查看邻近地区的地图。


METAR-TAF: